Time;durP1;ratioP1;P1;durP2;ratioP2;P2;SDS_P1;SDS_P2;PMS_P1;PMS_P2;Temp;Humidity;BMP_temperature;BMP_pressure;BME280_temperature;BME280_humidity;BME280_pressure;Samples;Min_cycle;Max_cycle;Signal;HPM_P1;HPM_P2
2021/12/07 00:02:18;;;;;;;24.77;11.47;;;0.30;99.90;;;-1.83;91.62;99489.53;10556582;27;96850;-80
2021/12/07 00:07:22;;;;;;;26.67;12.10;;;0.30;99.90;;;-1.85;91.79;99460.16;10560157;27;96583;-78
2021/12/07 00:12:33;;;;;;;28.53;11.27;;;0.20;99.90;;;-1.86;91.97;99463.69;10576429;27;96561;-78
2021/12/07 00:17:37;;;;;;;20.58;8.15;;;0.20;99.90;;;-1.89;91.67;99469.94;10568967;27;96545;-78
2021/12/07 00:22:42;;;;;;;26.70;12.37;;;0.20;99.90;;;-1.94;92.07;99469.44;10551874;27;96541;-78
2021/12/07 00:27:45;;;;;;;22.77;10.53;;;0.20;99.90;;;-1.94;92.12;99465.06;10575266;27;96742;-78
2021/12/07 00:33:06;;;;;;;26.73;11.40;;;0.10;99.90;;;-1.96;92.39;99485.16;10532718;27;96719;-78
2021/12/07 00:38:16;;;;;;;22.93;11.30;;;0.10;99.90;;;-1.99;92.54;99494.94;10537009;27;96720;-80
2021/12/07 00:43:19;;;;;;;23.00;11.37;;;0.10;99.90;;;-2.04;92.44;99486.63;10532506;27;96540;-78
2021/12/07 00:48:22;;;;;;;26.23;11.93;;;0.00;99.90;;;-2.08;92.51;99486.00;10513895;27;96665;-80
2021/12/07 00:53:27;;;;;;;26.73;13.03;;;0.00;99.90;;;-2.06;92.72;99486.72;10527829;27;96817;-81
2021/12/07 00:58:32;;;;;;;24.57;11.97;;;0.00;99.90;;;-2.00;92.65;99481.09;10552200;27;96716;-80
2021/12/07 01:03:36;;;;;;;24.37;12.33;;;0.00;99.90;;;-1.91;92.63;99477.88;10583315;27;96492;-79
2021/12/07 01:24:40;;;;;;;26.67;13.30;;;0.30;99.90;;;-1.64;91.85;99456.03;10537283;27;96921;-78
2021/12/07 01:29:48;;;;;;;24.43;12.10;;;0.40;99.90;;;-1.62;92.03;99455.00;10535056;27;96464;-79
2021/12/07 02:00:58;;;;;;;22.65;12.02;;;0.60;99.90;;;-1.53;90.92;99445.69;10528604;27;97042;-80
2021/12/07 02:06:02;;;;;;;25.60;12.23;;;0.60;99.90;;;-1.50;90.97;99452.44;10528337;27;96512;-80
2021/12/07 02:11:05;;;;;;;24.60;12.07;;;0.60;99.90;;;-1.46;91.18;99453.88;10512085;27;96523;-79
2021/12/07 02:16:11;;;;;;;23.57;10.57;;;0.60;99.90;;;-1.44;91.36;99455.47;10528381;27;96510;-80
2021/12/07 02:21:23;;;;;;;30.50;13.20;;;0.70;99.90;;;-1.42;91.46;99453.56;10554984;27;96548;-80
2021/12/07 02:26:25;;;;;;;31.45;14.55;;;0.70;99.90;;;-1.43;91.36;99454.50;10525924;27;96641;-80
2021/12/07 02:31:28;;;;;;;27.23;12.43;;;0.80;99.90;;;-1.44;91.54;99450.25;10548503;27;96482;-80
2021/12/07 02:36:32;;;;;;;27.37;12.47;;;0.70;99.90;;;-1.46;91.61;99451.28;10561670;27;97085;-80
2021/12/07 02:41:36;;;;;;;28.37;13.33;;;0.70;99.90;;;-1.46;91.47;99452.09;10546071;27;96696;-80
2021/12/07 02:46:39;;;;;;;28.73;12.53;;;0.70;99.90;;;-1.45;91.18;99440.75;10557970;27;96531;-80
2021/12/07 02:51:43;;;;;;;22.77;11.53;;;0.70;99.90;;;-1.44;91.24;99438.97;10517383;27;96536;-80
2021/12/07 02:56:46;;;;;;;29.43;15.53;;;0.70;99.90;;;-1.44;91.28;99433.75;10553636;27;96652;-80
2021/12/07 03:01:59;;;;;;;25.00;12.47;;;0.70;99.90;;;-1.44;90.95;99433.75;10547377;27;96479;-80
2021/12/07 03:07:13;;;;;;;25.57;13.13;;;0.70;99.90;;;-1.46;91.12;99431.25;10554499;27;96600;-80
2021/12/07 03:28:48;;;;;;;25.80;13.97;;;0.60;99.90;;;-1.48;90.36;99433.16;10569851;27;96455;-80
2021/12/07 03:33:53;;;;;;;25.63;12.57;;;0.60;99.90;;;-1.46;90.98;99436.47;10562732;27;96522;-80
2021/12/07 03:38:57;;;;;;;29.07;12.80;;;0.60;99.90;;;-1.44;91.01;99424.19;10559249;27;96546;-80
2021/12/07 03:44:00;;;;;;;25.27;12.67;;;0.70;99.90;;;-1.43;90.76;99435.44;10566936;27;96560;-80
2021/12/07 03:49:03;;;;;;;26.13;13.43;;;0.70;99.90;;;-1.45;90.94;99435.53;10560709;27;96589;-80
2021/12/07 03:54:06;;;;;;;26.70;13.83;;;0.70;99.90;;;-1.46;91.18;99441.69;10573910;27;96491;-80
2021/12/07 03:59:09;;;;;;;28.60;14.40;;;0.70;99.90;;;-1.47;91.02;99434.00;10546760;27;96474;-80
2021/12/07 04:04:12;;;;;;;29.47;13.83;;;0.70;99.90;;;-1.49;90.99;99436.72;10573260;27;96463;-80
2021/12/07 04:09:16;;;;;;;26.07;13.60;;;0.60;99.90;;;-1.49;91.06;99444.53;10569896;27;96750;-80
2021/12/07 04:14:20;;;;;;;30.03;13.97;;;0.60;99.90;;;-1.50;90.73;99445.47;10556623;27;96913;-80
2021/12/07 04:19:23;;;;;;;32.00;14.57;;;0.60;99.90;;;-1.49;90.94;99434.09;10533806;27;96674;-80
2021/12/07 04:24:27;;;;;;;27.53;13.90;;;0.60;99.90;;;-1.48;90.97;99442.75;10572548;27;96318;-80
2021/12/07 04:29:30;;;;;;;23.83;13.43;;;0.60;99.90;;;-1.47;90.98;99442.63;10536554;27;96596;-80
2021/12/07 04:34:34;;;;;;;26.40;13.30;;;0.60;99.90;;;-1.46;90.69;99446.91;10550408;27;96902;-80
2021/12/07 04:39:37;;;;;;;28.50;14.33;;;0.70;99.90;;;-1.48;90.81;99448.78;10564839;27;96691;-80
2021/12/07 04:44:48;;;;;;;27.07;13.23;;;0.60;99.90;;;-1.44;90.50;99450.25;10548659;27;96609;-81
2021/12/07 04:50:22;;;;;;;27.87;13.13;;;0.70;99.90;;;-1.45;90.55;99451.16;10553724;27;96569;-81
2021/12/07 05:00:39;;;;;;;30.70;14.23;;;0.70;99.90;;;-1.44;90.99;99459.81;10550171;27;97881;-81
2021/12/07 05:05:49;;;;;;;35.63;15.77;;;0.70;99.90;;;-1.42;90.61;99471.81;10579560;27;96879;-81
2021/12/07 05:16:11;;;;;;;27.93;14.57;;;0.80;99.90;;;-1.39;90.62;99481.16;10536793;27;96589;-81
2021/12/07 05:42:44;;;;;;;27.93;13.63;;;0.70;99.90;;;-1.44;90.03;99491.94;10572064;27;96616;-81
2021/12/07 05:47:47;;;;;;;29.20;12.47;;;0.70;99.90;;;-1.44;90.18;99489.34;10531044;27;96566;-81
2021/12/07 05:52:51;;;;;;;28.97;13.13;;;0.80;99.90;;;-1.45;89.91;99477.22;10532091;27;96462;-81
2021/12/07 05:57:55;;;;;;;23.60;12.37;;;0.70;99.90;;;-1.48;89.90;99476.63;10507036;27;96644;-81
2021/12/07 06:03:06;;;;;;;30.90;13.93;;;0.70;99.90;;;-1.51;89.91;99471.63;10515356;27;96458;-81
2021/12/07 06:08:10;;;;;;;19.73;9.77;;;0.60;99.90;;;-1.54;89.72;99470.06;10516502;27;96529;-81
2021/12/07 06:13:14;;;;;;;28.80;14.00;;;0.60;99.90;;;-1.57;89.93;99475.50;10496090;27;97633;-81
2021/12/07 06:18:18;;;;;;;28.33;13.50;;;0.60;99.90;;;-1.60;89.71;99472.28;10514899;27;96616;-80
2021/12/07 06:23:21;;;;;;;27.53;13.47;;;0.50;99.90;;;-1.59;89.69;99466.97;10537460;27;96494;-82
2021/12/07 06:28:24;;;;;;;29.70;14.80;;;0.50;99.90;;;-1.60;89.86;99475.72;10511765;27;98165;-81
2021/12/07 06:33:27;;;;;;;32.43;14.80;;;0.50;99.90;;;-1.60;89.68;99464.47;10539548;27;96536;-81
2021/12/07 06:38:33;;;;;;;29.97;14.27;;;0.50;99.90;;;-1.64;89.15;99469.06;10512926;27;96590;-82
2021/12/07 06:43:37;;;;;;;25.70;12.40;;;0.50;99.90;;;-1.66;89.31;99470.94;10519770;27;97462;-81
2021/12/07 06:48:40;;;;;;;24.93;13.37;;;0.50;99.90;;;-1.70;89.23;99477.31;10471473;27;96628;-81
2021/12/07 06:53:43;;;;;;;28.83;13.30;;;0.40;99.90;;;-1.74;89.28;99476.69;10472476;27;96645;-81
2021/12/07 06:58:46;;;;;;;25.77;13.07;;;0.40;99.90;;;-1.76;89.37;99483.78;10492259;27;97114;-81
2021/12/07 07:03:49;;;;;;;31.60;14.50;;;0.40;99.90;;;-1.79;89.32;99486.59;10497310;27;96674;-81
2021/12/07 07:08:52;;;;;;;28.53;13.53;;;0.40;99.90;;;-1.79;89.22;99486.59;10477677;27;98352;-81
2021/12/07 07:13:55;;;;;;;23.50;12.10;;;0.40;99.90;;;-1.77;89.48;99489.09;10507668;27;96377;-81
2021/12/07 07:18:58;;;;;;;27.77;12.90;;;0.40;99.90;;;-1.76;89.49;99486.38;10491779;27;96445;-81
2021/12/07 07:24:02;;;;;;;31.93;14.20;;;0.40;99.90;;;-1.75;89.58;99485.44;10507031;27;97115;-81
2021/12/07 07:29:05;;;;;;;27.83;12.63;;;0.40;99.90;;;-1.71;89.69;99501.69;10492993;27;96686;-81
2021/12/07 07:34:08;;;;;;;29.37;13.43;;;0.40;99.90;;;-1.70;89.20;99490.31;10482690;27;96552;-81
2021/12/07 07:39:12;;;;;;;28.33;12.57;;;0.40;99.90;;;-1.67;88.96;99498.78;10482581;27;97578;-81
2021/12/07 07:44:15;;;;;;;30.33;14.40;;;0.50;99.90;;;-1.65;88.99;99498.66;10505551;27;96585;-82
2021/12/07 07:49:18;;;;;;;27.90;12.87;;;0.50;99.90;;;-1.61;89.16;99494.91;10532995;27;96508;-81
2021/12/07 07:54:21;;;;;;;27.23;12.40;;;0.60;99.90;;;-1.54;88.68;99500.50;10562084;27;96468;-81
2021/12/07 07:59:24;;;;;;;25.80;12.53;;;0.60;99.90;;;-1.45;88.40;99510.28;10574684;27;96635;-81
2021/12/07 08:04:27;;;;;;;28.10;13.77;;;0.70;99.90;;;-1.35;88.46;99499.09;10574328;27;96537;-81
2021/12/07 08:09:30;;;;;;;22.03;11.53;;;0.80;99.90;;;-1.23;88.21;99507.81;10556650;27;96587;-81
2021/12/07 08:14:34;;;;;;;25.47;13.00;;;0.90;99.90;;;-1.12;88.19;99513.09;10571515;27;96476;-81
2021/12/07 08:19:38;;;;;;;28.50;14.23;;;1.00;99.90;;;-1.00;87.66;99516.59;10517033;27;96523;-81
2021/12/07 08:24:41;;;;;;;27.07;12.63;;;1.20;99.90;;;-0.91;87.72;99520.28;10550142;27;96701;-81
2021/12/07 08:29:44;;;;;;;28.40;12.10;;;1.30;99.90;;;-0.86;86.94;99513.81;10574448;27;96452;-81
2021/12/07 08:34:47;;;;;;;93.50;31.13;;;1.40;99.90;;;-0.78;86.89;99515.00;10556558;27;96533;-81
2021/12/07 08:39:50;;;;;;;24.70;11.90;;;1.40;99.90;;;-0.64;86.68;99520.91;10535082;27;96531;-81
2021/12/07 08:44:53;;;;;;;28.93;12.13;;;1.50;99.90;;;-0.56;86.31;99526.38;10549077;27;96385;-81
2021/12/07 08:49:57;;;;;;;25.83;12.57;;;1.60;99.90;;;-0.55;86.19;99519.38;10539893;27;96557;-81
2021/12/07 09:00:18;;;;;;;31.07;13.00;;;1.70;99.90;;;-0.49;85.95;99505.03;10566239;27;96502;-81
2021/12/07 09:05:21;;;;;;;23.07;12.50;;;1.70;99.90;;;-0.18;85.57;99495.72;10565358;27;96474;-81
2021/12/07 09:10:24;;;;;;;19.10;10.23;;;1.90;99.90;;;0.48;83.96;99491.44;10561352;27;96525;-81
2021/12/07 09:15:27;;;;;;;17.60;10.70;;;2.40;99.90;;;1.09;82.11;99476.09;10555126;27;96495;-81
2021/12/07 09:20:31;;;;;;;21.53;9.97;;;3.00;99.90;;;1.48;80.43;99476.38;10560793;27;96471;-81
2021/12/07 09:25:34;;;;;;;22.00;10.73;;;3.40;99.90;;;1.52;79.76;99472.53;10550760;27;96880;-81
2021/12/07 09:30:38;;;;;;;21.20;10.90;;;3.70;99.90;;;1.38;79.27;99472.84;10516805;27;96636;-81
2021/12/07 09:35:41;;;;;;;24.57;12.27;;;3.70;99.90;;;1.15;78.88;99453.81;10529744;27;97495;-81
2021/12/07 09:40:46;;;;;;;20.87;10.47;;;3.60;99.90;;;0.96;79.40;99460.56;10547755;27;96509;-81
2021/12/07 09:45:50;;;;;;;23.23;11.63;;;3.40;99.90;;;0.79;79.93;99467.16;10528487;27;96485;-80
2021/12/07 09:50:55;;;;;;;22.57;11.57;;;3.20;99.90;;;0.64;79.63;99463.13;10543167;27;96942;-80
2021/12/07 09:56:07;;;;;;;24.57;12.37;;;3.00;99.90;;;0.55;80.51;99458.66;10563660;27;98002;-81
2021/12/07 10:01:10;;;;;;;;;;;2.90;99.90;;;0.55;81.07;99453.44;10556755;27;96381;-80
2021/12/07 10:06:14;;;;;;;27.37;12.70;;;2.90;99.90;;;0.58;81.66;99442.72;10580065;27;96659;-80
2021/12/07 10:11:17;;;;;;;28.00;14.07;;;2.80;99.90;;;0.60;81.64;99434.72;10560836;27;96493;-80
2021/12/07 10:16:23;;;;;;;23.43;11.13;;;2.90;99.90;;;0.69;81.82;99434.00;10537932;27;96557;-80
2021/12/07 10:21:39;;;;;;;28.47;12.10;;;3.00;99.90;;;0.77;81.41;99421.97;10546166;27;96488;-80
2021/12/07 10:26:43;;;;;;;41.03;17.80;;;3.00;99.90;;;0.89;81.57;99421.91;10547104;27;97169;-81
2021/12/07 10:32:01;;;;;;;30.73;13.77;;;3.10;99.90;;;0.98;81.04;99422.00;10535608;27;96552;-81
2021/12/07 10:37:15;;;;;;;27.97;13.77;;;3.20;99.90;;;1.04;81.28;99418.91;10569611;27;96477;-80
2021/12/07 10:42:37;;;;;;;24.00;12.77;;;3.30;99.90;;;1.40;81.41;99422.03;10534911;27;96543;-80
2021/12/07 10:47:40;;;;;;;20.88;10.60;;;3.60;99.90;;;2.07;78.92;99413.66;10567834;27;96490;-80
2021/12/07 10:52:45;;;;;;;25.93;13.10;;;4.10;99.90;;;2.22;77.49;99416.75;10543775;27;96455;-80
2021/12/07 10:57:52;;;;;;;25.97;13.63;;;4.30;99.90;;;2.18;76.14;99411.91;10535115;27;96560;-80
2021/12/07 11:03:04;;;;;;;28.80;13.60;;;4.40;99.90;;;1.97;76.11;99409.34;10529334;27;96662;-80
2021/12/07 11:08:09;;;;;;;24.73;12.93;;;4.20;99.90;;;1.71;76.68;99408.97;10517801;27;96484;-80
2021/12/07 11:13:26;;;;;;;30.57;14.67;;;4.00;99.90;;;1.51;77.31;99408.03;10540622;27;96435;-80
2021/12/07 11:18:36;;;;;;;34.60;15.43;;;3.70;99.90;;;1.37;77.99;99419.66;10555749;27;97900;-81
2021/12/07 11:23:49;;;;;;;29.98;16.15;;;3.60;99.90;;;1.20;78.54;99415.00;10519457;27;96535;-81
2021/12/07 11:34:27;;;;;;;30.53;15.00;;;3.30;99.90;;;0.93;79.59;99405.03;10577711;27;96694;-81
2021/12/07 11:39:47;;;;;;;25.57;14.50;;;3.10;99.90;;;0.81;80.03;99412.09;10561861;27;96550;-81
2021/12/07 11:45:06;;;;;;;31.13;15.00;;;3.00;99.90;;;0.69;80.67;99408.69;10552096;27;96571;-81
2021/12/07 11:50:17;;;;;;;30.33;14.87;;;2.90;99.90;;;0.65;81.30;99414.28;10563400;27;96649;-81
2021/12/07 11:55:20;;;;;;;31.77;14.73;;;2.80;99.90;;;0.67;81.38;99420.25;10590573;27;96410;-81
2021/12/07 12:00:34;;;;;;;30.07;14.70;;;2.80;99.90;;;0.68;81.50;99417.50;10562469;27;96492;-81
2021/12/07 12:05:41;;;;;;;31.37;15.20;;;2.80;99.90;;;0.73;81.28;99407.50;10550413;27;96377;-81
2021/12/07 12:10:49;;;;;;;31.17;15.23;;;2.90;99.90;;;0.79;81.74;99412.22;10555021;27;96519;-81
2021/12/07 12:16:29;;;;;;;29.97;14.03;;;2.90;99.90;;;0.88;81.92;99394.94;10552774;27;96476;-81
2021/12/07 12:21:53;;;;;;;30.50;14.97;;;3.00;99.90;;;1.03;81.56;99387.63;10571251;27;96953;-78
2021/12/07 12:27:05;;;;;;;25.07;11.90;;;3.10;99.90;;;1.11;80.69;99402.69;10573161;27;96368;-80
2021/12/07 12:32:08;;;;;;;26.03;13.13;;;3.20;99.90;;;1.17;79.68;99400.38;10574224;27;98039;-81
2021/12/07 12:37:27;;;;;;;29.07;14.00;;;3.30;99.90;;;1.21;79.89;99393.13;10557464;27;96622;-81
2021/12/07 12:42:41;;;;;;;30.50;15.20;;;3.40;99.90;;;1.26;79.45;99402.25;10542280;27;96631;-78
2021/12/07 12:47:44;;;;;;;63.33;31.30;;;3.40;99.90;;;1.24;79.68;99404.16;10540417;27;96591;-81
2021/12/07 12:52:48;;;;;;;29.40;14.93;;;3.40;99.90;;;1.19;79.47;99408.09;10556028;27;96595;-81
2021/12/07 12:57:52;;;;;;;30.17;14.33;;;3.30;99.90;;;1.15;79.49;99407.53;10571775;27;97499;-79
2021/12/07 13:03:09;;;;;;;32.83;15.00;;;3.30;99.90;;;1.11;79.40;99421.84;10555385;27;96621;-81
2021/12/07 13:08:17;;;;;;;33.50;14.93;;;3.30;99.90;;;1.09;79.55;99433.41;10550155;27;96549;-81
2021/12/07 13:13:34;;;;;;;32.27;15.47;;;3.20;99.90;;;1.06;79.66;99435.28;10555566;27;96624;-81
2021/12/07 13:18:40;;;;;;;38.40;18.20;;;3.20;99.90;;;1.02;80.26;99433.91;10586716;27;96947;-80
2021/12/07 13:24:04;;;;;;;39.30;18.60;;;3.20;99.90;;;0.98;80.12;99442.94;10548411;27;96585;-79
2021/12/07 13:29:12;;;;;;;42.43;20.60;;;3.10;99.90;;;0.96;80.79;99436.16;10533885;27;96581;-79
2021/12/07 13:34:17;;;;;;;32.83;16.33;;;3.00;99.90;;;0.94;81.06;99430.22;10514246;27;96636;-79
2021/12/07 13:39:21;;;;;;;33.50;16.53;;;3.00;99.90;;;0.91;80.99;99422.66;10528918;27;96531;-79
2021/12/07 13:44:27;;;;;;;36.33;15.17;;;3.00;99.90;;;0.90;81.13;99428.81;10547398;27;96538;-80
2021/12/07 13:49:33;;;;;;;33.13;15.97;;;3.00;99.90;;;0.88;80.93;99428.94;10571484;27;96572;-79
2021/12/07 13:54:47;;;;;;;37.77;16.77;;;3.00;99.90;;;0.87;80.96;99439.53;10560943;27;96625;-79
2021/12/07 14:00:31;;;;;;;50.43;22.87;;;3.00;99.90;;;0.82;81.32;99452.16;10547143;27;96677;-79
2021/12/07 14:05:38;;;;;;;35.80;16.43;;;2.90;99.90;;;0.77;81.29;99457.75;10498733;27;97903;-79
2021/12/07 14:10:49;;;;;;;40.13;18.30;;;2.90;99.90;;;0.72;81.52;99463.38;10568486;27;96692;-79
2021/12/07 14:15:52;;;;;;;34.87;15.13;;;2.80;99.90;;;0.65;81.58;99459.56;10555110;27;96597;-79
2021/12/07 14:21:00;;;;;;;34.37;15.17;;;2.80;99.90;;;0.57;81.98;99459.34;10529371;27;96523;-79
2021/12/07 14:26:14;;;;;;;38.23;18.93;;;2.70;99.90;;;0.51;82.17;99462.47;10554191;27;96576;-79
2021/12/07 14:31:42;;;;;;;60.87;25.83;;;2.60;99.90;;;0.42;82.54;99461.41;10534856;27;96571;-79
2021/12/07 14:36:50;;;;;;;53.40;25.17;;;2.60;99.90;;;0.31;82.58;99469.28;10534150;27;98170;-79
2021/12/07 14:42:01;;;;;;;57.63;28.17;;;2.50;99.90;;;0.21;82.53;99484.00;10539623;27;96561;-79
2021/12/07 14:47:07;;;;;;;44.00;19.60;;;2.40;99.90;;;0.07;83.07;99487.69;10541243;27;96692;-79
2021/12/07 14:52:15;;;;;;;81.30;37.10;;;2.30;99.90;;;-0.07;83.56;99482.66;10553139;27;96592;-79
2021/12/07 14:57:21;;;;;;;39.17;17.93;;;2.20;99.90;;;-0.15;83.59;99505.94;10547954;27;96747;-79
2021/12/07 15:02:25;;;;;;;44.77;20.63;;;2.10;99.90;;;-0.18;83.75;99493.09;10563680;27;96553;-80
2021/12/07 15:07:32;;;;;;;36.07;16.43;;;2.00;99.90;;;-0.20;83.88;99495.00;10564723;27;96501;-79
2021/12/07 15:12:40;;;;;;;34.87;16.27;;;2.00;99.90;;;-0.22;83.93;99492.53;10534435;27;96443;-80
2021/12/07 15:17:43;;;;;;;36.07;14.03;;;2.00;99.90;;;-0.20;84.13;99497.63;10559313;27;98151;-79
2021/12/07 15:22:46;;;;;;;32.83;15.20;;;1.90;99.90;;;-0.16;83.69;99499.06;10544111;27;96620;-79
2021/12/07 15:27:53;;;;;;;33.00;15.33;;;2.00;99.90;;;-0.12;83.57;99497.84;10533027;27;96773;-79
2021/12/07 15:32:56;;;;;;;40.53;17.73;;;2.00;99.90;;;-0.09;83.32;99505.47;10533812;27;96429;-80
2021/12/07 15:37:59;;;;;;;36.57;16.87;;;2.00;99.90;;;-0.10;82.94;99511.66;10561845;27;98073;-80
2021/12/07 15:43:02;;;;;;;33.20;14.90;;;2.00;99.90;;;-0.07;83.18;99512.22;10534624;27;97181;-79
2021/12/07 15:48:06;;;;;;;36.00;16.03;;;2.10;99.90;;;-0.14;82.85;99520.66;10566386;27;96629;-80
2021/12/07 15:53:14;;;;;;;38.60;15.53;;;2.10;99.90;;;-0.27;83.32;99516.38;10554652;27;96692;-79
2021/12/07 15:58:24;;;;;;;36.90;16.13;;;1.90;99.90;;;-0.35;83.65;99512.69;10531643;27;96632;-79
2021/12/07 16:03:27;;;;;;;36.47;16.60;;;1.80;99.90;;;-0.40;83.66;99505.19;10534001;27;96755;-79
2021/12/07 16:08:35;;;;;;;39.70;19.07;;;1.80;99.90;;;-0.45;84.25;99509.91;10566485;27;96921;-79
2021/12/07 16:13:49;;;;;;;34.20;15.43;;;1.70;99.90;;;-0.50;83.99;99509.41;10575683;27;96535;-79
2021/12/07 16:18:54;;;;;;;35.10;15.27;;;1.70;99.90;;;-0.58;84.26;99517.00;10565892;27;97476;-80
2021/12/07 16:23:59;;;;;;;42.27;17.37;;;1.60;99.90;;;-0.69;84.50;99514.34;10549244;27;98300;-79
2021/12/07 16:29:05;;;;;;;88.67;31.70;;;1.60;99.90;;;-0.82;85.29;99525.69;10551344;27;96764;-80
2021/12/07 16:34:09;;;;;;;40.63;17.90;;;1.50;99.90;;;-0.93;85.19;99522.19;10536885;27;96546;-80
2021/12/07 16:39:12;;;;;;;49.07;19.73;;;1.40;99.90;;;-0.98;85.95;99525.13;10550823;27;97932;-79
2021/12/07 16:44:15;;;;;;;38.27;16.97;;;1.30;99.90;;;-0.96;86.39;99533.69;10566888;27;96663;-80
2021/12/07 16:49:18;;;;;;;45.83;20.77;;;1.30;99.90;;;-1.02;86.58;99534.13;10586876;27;96681;-80
2021/12/07 16:54:22;;;;;;;144.30;57.73;;;1.30;99.90;;;-1.14;86.70;99535.84;10557956;27;98103;-80
2021/12/07 16:59:26;;;;;;;44.03;19.83;;;1.10;99.90;;;-1.28;86.61;99545.56;10534459;27;97952;-80
2021/12/07 17:04:29;;;;;;;47.97;19.20;;;1.10;99.90;;;-1.42;86.76;99538.75;10552096;27;96575;-80
2021/12/07 17:09:36;;;;;;;63.23;23.93;;;0.90;99.90;;;-1.53;87.26;99538.66;10545164;27;97374;-81
2021/12/07 17:14:39;;;;;;;82.47;34.13;;;0.80;99.90;;;-1.57;87.81;99535.41;10536882;27;97958;-80
2021/12/07 17:19:42;;;;;;;51.67;23.03;;;0.70;99.90;;;-1.57;88.31;99535.41;10549914;27;96564;-80
2021/12/07 17:24:45;;;;;;;228.17;83.07;;;0.70;99.90;;;-1.55;88.61;99530.94;10572265;27;96886;-80
2021/12/07 17:29:48;;;;;;;66.70;24.77;;;0.70;99.90;;;-1.57;88.95;99532.81;10529362;27;96555;-79
2021/12/07 17:34:51;;;;;;;82.93;26.23;;;0.60;99.90;;;-1.62;88.92;99540.09;10554067;27;96833;-80
2021/12/07 17:39:54;;;;;;;52.80;20.10;;;0.60;99.90;;;-1.69;89.04;99539.72;10550754;27;96447;-80
2021/12/07 17:44:57;;;;;;;63.20;23.43;;;0.50;99.90;;;-1.71;89.67;99536.38;10552759;27;96599;-79
2021/12/07 17:50:00;;;;;;;139.70;40.57;;;0.50;99.90;;;-1.73;89.74;99540.88;10559027;27;96625;-79
2021/12/07 17:55:18;;;;;;;48.20;19.50;;;0.40;99.90;;;-1.73;90.02;99545.25;10548311;27;96501;-79
2021/12/07 18:00:27;;;;;;;60.80;19.77;;;0.40;99.90;;;-1.71;90.27;99551.19;10529605;27;96724;-79
2021/12/07 18:05:36;;;;;;;55.97;18.47;;;0.40;99.90;;;-1.72;90.49;99555.56;10518454;27;96499;-79
2021/12/07 18:10:39;;;;;;;39.50;16.40;;;0.40;99.90;;;-1.70;90.43;99558.06;10536360;27;97196;-79
2021/12/07 18:15:44;;;;;;;43.57;16.63;;;0.40;99.90;;;-1.70;nan;99558.06;10547545;27;96562;-79
2021/12/07 18:20:47;;;;;;;38.70;16.57;;;0.40;99.90;;;-1.67;90.54;99563.06;10516984;27;97858;-79
2021/12/07 18:25:52;;;;;;;39.43;17.23;;;0.40;99.90;;;-1.66;90.46;99569.94;10566352;27;96488;-79
2021/12/07 18:30:56;;;;;;;36.07;15.50;;;0.40;99.90;;;-1.64;90.54;99568.06;10543139;27;96447;-79
2021/12/07 18:36:02;;;;;;;33.90;15.43;;;0.40;99.90;;;-1.63;90.31;99567.09;10571533;27;96514;-79
2021/12/07 18:41:13;;;;;;;38.07;17.93;;;0.50;99.90;;;-1.64;90.51;99579.31;10532229;27;96560;-79
2021/12/07 18:46:17;;;;;;;40.77;16.63;;;0.50;99.90;;;-1.63;90.24;99585.34;10520490;27;96692;-79
2021/12/07 18:51:20;;;;;;;38.47;16.53;;;0.50;99.90;;;-1.62;90.56;99582.66;10524919;27;96798;-79
2021/12/07 18:56:24;;;;;;;44.63;18.97;;;0.50;99.90;;;-1.65;90.33;99582.03;10539696;27;96592;-79
2021/12/07 19:01:27;;;;;;;39.80;17.40;;;0.50;99.90;;;-1.67;90.24;99578.69;10556674;27;96736;-79
2021/12/07 19:06:30;;;;;;;42.13;18.13;;;0.40;99.90;;;-1.69;90.41;99584.00;10554375;27;96644;-80
2021/12/07 19:11:39;;;;;;;37.80;17.50;;;0.40;99.90;;;-1.71;90.77;99588.47;10552323;27;97049;-80
2021/12/07 19:16:42;;;;;;;42.23;18.00;;;0.40;99.90;;;-1.70;91.06;99595.34;10552839;27;97420;-79
2021/12/07 19:21:44;;;;;;;43.10;18.47;;;0.40;99.90;;;-1.73;90.63;99585.16;10534389;27;96602;-79
2021/12/07 19:26:47;;;;;;;39.90;16.73;;;0.40;99.90;;;-1.72;90.76;99596.41;10576463;27;97945;-79
2021/12/07 19:31:51;;;;;;;35.83;17.07;;;0.40;99.90;;;-1.75;90.76;99596.59;10548320;27;96435;-79
2021/12/07 19:36:56;;;;;;;45.17;18.37;;;0.30;99.90;;;-1.79;90.87;99608.19;10558455;27;97200;-80
2021/12/07 19:42:00;;;;;;;49.00;21.33;;;0.30;99.90;;;-1.88;91.24;99607.84;10553634;27;96622;-80
2021/12/07 19:47:04;;;;;;;44.53;18.00;;;0.30;99.90;;;-1.94;91.21;99610.03;10560396;27;96496;-79
2021/12/07 19:52:08;;;;;;;51.53;20.33;;;0.20;99.90;;;-1.99;91.46;99605.13;10537729;27;96786;-80
2021/12/07 19:57:11;;;;;;;63.47;22.80;;;0.20;99.90;;;-2.03;91.42;99606.28;10532994;27;96532;-81
2021/12/07 20:02:18;;;;;;;51.73;19.67;;;0.10;99.90;;;-2.08;91.84;99610.97;10549239;27;96561;-81
2021/12/07 20:07:21;;;;;;;50.87;18.80;;;0.10;99.90;;;-2.12;91.92;99612.09;10543588;27;96949;-81
2021/12/07 20:12:24;;;;;;;43.47;17.17;;;0.00;99.90;;;-2.16;92.02;99614.09;10540033;27;97984;-80
2021/12/07 20:17:27;;;;;;;42.43;16.33;;;0.00;99.90;;;-2.17;92.15;99612.41;10558692;27;97286;-80
2021/12/07 20:22:30;;;;;;;40.93;15.83;;;-0.10;99.90;;;-2.22;92.33;99613.63;10539884;27;96767;-80
2021/12/07 20:27:33;;;;;;;39.43;16.07;;;-0.10;99.90;;;-2.27;92.38;99606.16;10553343;27;96815;-80
2021/12/07 20:32:36;;;;;;;60.17;20.43;;;-0.20;99.90;;;-2.32;92.12;99603.00;10541045;27;96559;-80
2021/12/07 20:37:39;;;;;;;44.00;16.23;;;-0.20;99.90;;;-2.37;92.60;99599.88;10559470;27;98332;-80
2021/12/07 20:42:44;;;;;;;59.50;21.63;;;-0.20;99.90;;;-2.42;92.60;99599.34;10571984;27;96452;-80
2021/12/07 20:47:47;;;;;;;63.90;24.40;;;-0.30;99.90;;;-2.47;92.68;99602.22;10548526;27;96944;-79
2021/12/07 20:52:51;;;;;;;65.53;25.40;;;-0.30;99.90;;;-2.51;92.84;99610.38;10556432;27;97952;-80
2021/12/07 20:57:54;;;;;;;74.23;27.87;;;-0.40;99.90;;;-2.56;93.22;99604.63;10540469;27;96675;-80
2021/12/07 21:02:57;;;;;;;78.13;26.83;;;-0.50;99.90;;;-2.65;93.17;99606.03;10554490;27;96521;-80
2021/12/07 21:08:00;;;;;;;64.00;25.27;;;-0.50;99.90;;;-2.72;93.12;99616.00;10540021;27;96505;-80
2021/12/07 21:13:04;;;;;;;52.30;22.03;;;-0.60;99.90;;;-2.78;93.02;99620.75;10550480;27;96991;-80
2021/12/07 21:18:08;;;;;;;64.97;22.90;;;-0.70;99.90;;;-2.83;93.53;99617.59;10559341;27;96831;-80
2021/12/07 21:23:11;;;;;;;52.90;22.17;;;-0.70;99.90;;;-2.86;93.63;99607.41;10552498;27;96679;-81
2021/12/07 21:28:14;;;;;;;46.43;20.27;;;-0.80;99.90;;;-2.94;93.54;99614.84;10556185;27;96691;-80
2021/12/07 21:33:17;;;;;;;56.83;19.10;;;-0.80;99.90;;;-3.01;93.67;99610.03;10529163;27;96546;-81
2021/12/07 21:38:21;;;;;;;70.17;22.93;;;-0.90;99.90;;;-3.02;93.90;99615.34;10540263;27;96503;-80
2021/12/07 21:43:24;;;;;;;50.80;19.80;;;-0.90;99.90;;;-3.05;94.20;99613.78;10513076;27;96468;-81
2021/12/07 21:48:27;;;;;;;46.30;18.27;;;-0.90;99.90;;;-3.07;93.88;99622.59;10557825;27;96577;-80
2021/12/07 21:53:30;;;;;;;39.70;18.30;;;-0.90;99.90;;;-3.12;94.24;99616.81;10518831;27;96583;-81
2021/12/07 21:58:34;;;;;;;40.80;17.37;;;-0.90;99.90;;;-3.16;93.99;99610.19;10547946;27;96464;-81
2021/12/07 22:03:37;;;;;;;42.03;15.87;;;-1.00;99.90;;;-3.19;94.08;99610.34;10542462;27;97509;-80
2021/12/07 22:08:40;;;;;;;41.17;15.23;;;-1.00;99.90;;;-3.24;94.26;99608.03;10586606;27;96496;-81
2021/12/07 22:13:43;;;;;;;48.83;17.90;;;-1.00;99.90;;;-3.26;94.41;99610.72;10573251;27;96454;-81
2021/12/07 22:18:47;;;;;;;49.77;17.70;;;-1.00;99.90;;;-3.26;94.49;99597.75;10554557;27;97256;-81
2021/12/07 22:23:50;;;;;;;45.70;15.77;;;-1.00;99.90;;;-3.27;94.46;99610.84;10564682;27;96855;-81
2021/12/07 22:28:53;;;;;;;47.57;17.80;;;-1.00;99.90;;;-3.30;94.42;99613.59;10565399;27;96576;-81
2021/12/07 22:33:56;;;;;;;52.40;19.50;;;-1.00;99.90;;;-3.34;94.53;99614.75;10543497;27;96670;-81
2021/12/07 22:39:00;;;;;;;46.60;17.33;;;-1.00;99.90;;;-3.38;94.92;99621.03;10566155;27;96527;-81
2021/12/07 22:44:03;;;;;;;52.33;18.67;;;-1.10;99.90;;;-3.41;94.66;99618.66;10543281;27;96496;-81